sensor_id;sensor_type;location;lat;lon;timestamp;P1;durP1;ratioP1;P2;durP2;ratioP2
39448;SDS011;25151;45.566;9.382;2023-06-14T00:02:34;3.20;;;2.20;;
39448;SDS011;25151;45.566;9.382;2023-06-14T00:05:35;3.33;;;2.42;;
39448;SDS011;25151;45.566;9.382;2023-06-14T00:08:40;3.00;;;2.13;;
39448;SDS011;25151;45.566;9.382;2023-06-14T00:11:44;4.82;;;2.55;;
39448;SDS011;25151;45.566;9.382;2023-06-14T00:14:46;2.30;;;1.98;;
39448;SDS011;25151;45.566;9.382;2023-06-14T00:17:48;2.78;;;2.28;;
39448;SDS011;25151;45.566;9.382;2023-06-14T00:20:51;3.22;;;2.50;;
39448;SDS011;25151;45.566;9.382;2023-06-14T00:23:53;2.90;;;2.17;;
39448;SDS011;25151;45.566;9.382;2023-06-14T00:26:56;4.03;;;2.35;;
39448;SDS011;25151;45.566;9.382;2023-06-14T00:29:58;3.20;;;2.42;;
39448;SDS011;25151;45.566;9.382;2023-06-14T00:33:00;3.53;;;2.30;;
39448;SDS011;25151;45.566;9.382;2023-06-14T00:36:03;3.67;;;2.15;;
39448;SDS011;25151;45.566;9.382;2023-06-14T00:39:05;3.63;;;2.45;;
39448;SDS011;25151;45.566;9.382;2023-06-14T00:42:09;2.72;;;2.10;;
39448;SDS011;25151;45.566;9.382;2023-06-14T00:45:11;3.03;;;2.05;;
39448;SDS011;25151;45.566;9.382;2023-06-14T00:48:13;2.75;;;2.13;;
39448;SDS011;25151;45.566;9.382;2023-06-14T00:51:15;4.75;;;2.00;;
39448;SDS011;25151;45.566;9.382;2023-06-14T00:54:17;2.05;;;1.77;;
39448;SDS011;25151;45.566;9.382;2023-06-14T00:57:20;3.83;;;2.13;;
39448;SDS011;25151;45.566;9.382;2023-06-14T01:00:24;2.55;;;2.13;;
39448;SDS011;25151;45.566;9.382;2023-06-14T01:03:26;2.80;;;2.08;;
39448;SDS011;25151;45.566;9.382;2023-06-14T01:06:31;2.65;;;2.10;;
39448;SDS011;25151;45.566;9.382;2023-06-14T01:09:45;2.13;;;1.90;;
39448;SDS011;25151;45.566;9.382;2023-06-14T01:12:56;2.80;;;2.25;;
39448;SDS011;25151;45.566;9.382;2023-06-14T01:16:03;2.47;;;2.15;;
39448;SDS011;25151;45.566;9.382;2023-06-14T01:19:06;2.60;;;2.20;;
39448;SDS011;25151;45.566;9.382;2023-06-14T01:22:14;3.38;;;2.33;;
39448;SDS011;25151;45.566;9.382;2023-06-14T01:25:17;4.45;;;2.60;;
39448;SDS011;25151;45.566;9.382;2023-06-14T01:28:21;2.55;;;2.22;;
39448;SDS011;25151;45.566;9.382;2023-06-14T01:31:23;3.47;;;2.22;;
39448;SDS011;25151;45.566;9.382;2023-06-14T01:34:26;2.45;;;2.15;;
39448;SDS011;25151;45.566;9.382;2023-06-14T01:37:28;2.55;;;1.90;;
39448;SDS011;25151;45.566;9.382;2023-06-14T01:40:32;3.22;;;1.80;;
39448;SDS011;25151;45.566;9.382;2023-06-14T01:43:35;4.30;;;2.20;;
39448;SDS011;25151;45.566;9.382;2023-06-14T01:46:38;4.35;;;2.10;;
39448;SDS011;25151;45.566;9.382;2023-06-14T01:49:41;2.85;;;1.98;;
39448;SDS011;25151;45.566;9.382;2023-06-14T01:52:44;2.60;;;2.00;;
39448;SDS011;25151;45.566;9.382;2023-06-14T01:55:47;2.40;;;2.10;;
39448;SDS011;25151;45.566;9.382;2023-06-14T01:58:49;3.38;;;2.10;;
39448;SDS011;25151;45.566;9.382;2023-06-14T02:01:51;3.92;;;2.33;;
39448;SDS011;25151;45.566;9.382;2023-06-14T02:04:53;2.60;;;1.95;;
39448;SDS011;25151;45.566;9.382;2023-06-14T02:07:57;4.70;;;2.53;;
39448;SDS011;25151;45.566;9.382;2023-06-14T02:11:01;2.80;;;1.95;;
39448;SDS011;25151;45.566;9.382;2023-06-14T02:14:02;2.63;;;2.10;;
39448;SDS011;25151;45.566;9.382;2023-06-14T02:17:04;2.25;;;1.90;;
39448;SDS011;25151;45.566;9.382;2023-06-14T02:20:08;3.13;;;2.22;;
39448;SDS011;25151;45.566;9.382;2023-06-14T02:23:10;2.60;;;2.28;;
39448;SDS011;25151;45.566;9.382;2023-06-14T02:26:14;2.80;;;2.25;;
39448;SDS011;25151;45.566;9.382;2023-06-14T02:29:16;3.90;;;2.35;;
39448;SDS011;25151;45.566;9.382;2023-06-14T02:32:18;3.35;;;2.20;;
39448;SDS011;25151;45.566;9.382;2023-06-14T02:35:20;2.53;;;1.95;;
39448;SDS011;25151;45.566;9.382;2023-06-14T02:38:24;3.65;;;2.00;;
39448;SDS011;25151;45.566;9.382;2023-06-14T02:41:28;2.22;;;1.83;;
39448;SDS011;25151;45.566;9.382;2023-06-14T02:44:30;3.58;;;2.03;;
39448;SDS011;25151;45.566;9.382;2023-06-14T02:47:32;2.20;;;1.75;;
39448;SDS011;25151;45.566;9.382;2023-06-14T02:50:34;2.97;;;2.42;;
39448;SDS011;25151;45.566;9.382;2023-06-14T02:53:36;2.55;;;2.20;;
39448;SDS011;25151;45.566;9.382;2023-06-14T02:56:39;3.45;;;1.98;;
39448;SDS011;25151;45.566;9.382;2023-06-14T02:59:41;4.20;;;2.03;;
39448;SDS011;25151;45.566;9.382;2023-06-14T03:02:43;2.55;;;2.10;;
39448;SDS011;25151;45.566;9.382;2023-06-14T03:05:46;2.20;;;1.98;;
39448;SDS011;25151;45.566;9.382;2023-06-14T03:08:49;3.97;;;2.00;;
39448;SDS011;25151;45.566;9.382;2023-06-14T03:11:56;2.40;;;2.05;;
39448;SDS011;25151;45.566;9.382;2023-06-14T03:14:58;3.08;;;1.80;;
39448;SDS011;25151;45.566;9.382;2023-06-14T03:18:01;3.58;;;1.90;;
39448;SDS011;25151;45.566;9.382;2023-06-14T03:21:04;2.30;;;1.73;;
39448;SDS011;25151;45.566;9.382;2023-06-14T03:24:09;2.90;;;2.20;;
39448;SDS011;25151;45.566;9.382;2023-06-14T03:27:12;3.17;;;2.08;;
39448;SDS011;25151;45.566;9.382;2023-06-14T03:30:14;4.72;;;2.00;;
39448;SDS011;25151;45.566;9.382;2023-06-14T03:33:16;3.80;;;2.28;;
39448;SDS011;25151;45.566;9.382;2023-06-14T03:36:18;3.08;;;2.00;;
39448;SDS011;25151;45.566;9.382;2023-06-14T03:39:20;2.38;;;1.77;;
39448;SDS011;25151;45.566;9.382;2023-06-14T03:42:24;2.28;;;2.08;;
39448;SDS011;25151;45.566;9.382;2023-06-14T03:45:26;3.05;;;2.17;;
39448;SDS011;25151;45.566;9.382;2023-06-14T03:48:28;2.25;;;2.05;;
39448;SDS011;25151;45.566;9.382;2023-06-14T03:51:30;3.33;;;2.40;;
39448;SDS011;25151;45.566;9.382;2023-06-14T03:54:32;4.25;;;1.90;;
39448;SDS011;25151;45.566;9.382;2023-06-14T03:57:35;2.95;;;2.22;;
39448;SDS011;25151;45.566;9.382;2023-06-14T04:00:37;3.75;;;2.00;;
39448;SDS011;25151;45.566;9.382;2023-06-14T04:03:40;4.32;;;2.05;;
39448;SDS011;25151;45.566;9.382;2023-06-14T04:06:42;3.90;;;1.73;;
39448;SDS011;25151;45.566;9.382;2023-06-14T04:09:47;2.25;;;2.03;;
39448;SDS011;25151;45.566;9.382;2023-06-14T04:12:51;3.47;;;2.20;;
39448;SDS011;25151;45.566;9.382;2023-06-14T04:15:53;3.78;;;1.92;;
39448;SDS011;25151;45.566;9.382;2023-06-14T04:18:56;2.67;;;1.90;;
39448;SDS011;25151;45.566;9.382;2023-06-14T04:21:59;4.45;;;2.03;;
39448;SDS011;25151;45.566;9.382;2023-06-14T04:25:02;2.70;;;2.10;;
39448;SDS011;25151;45.566;9.382;2023-06-14T04:28:07;4.57;;;1.88;;
39448;SDS011;25151;45.566;9.382;2023-06-14T04:31:09;3.83;;;2.15;;
39448;SDS011;25151;45.566;9.382;2023-06-14T04:34:12;2.08;;;1.88;;
39448;SDS011;25151;45.566;9.382;2023-06-14T04:37:16;4.40;;;2.03;;
39448;SDS011;25151;45.566;9.382;2023-06-14T04:40:19;4.60;;;2.58;;
39448;SDS011;25151;45.566;9.382;2023-06-14T04:43:22;2.83;;;1.95;;
39448;SDS011;25151;45.566;9.382;2023-06-14T04:46:26;2.60;;;2.08;;
39448;SDS011;25151;45.566;9.382;2023-06-14T04:49:28;3.25;;;2.45;;
39448;SDS011;25151;45.566;9.382;2023-06-14T04:52:32;4.38;;;2.10;;
39448;SDS011;25151;45.566;9.382;2023-06-14T04:55:35;4.57;;;2.22;;
39448;SDS011;25151;45.566;9.382;2023-06-14T04:58:39;3.15;;;2.00;;
39448;SDS011;25151;45.566;9.382;2023-06-14T05:01:41;4.68;;;2.35;;
39448;SDS011;25151;45.566;9.382;2023-06-14T05:04:48;6.72;;;2.00;;
39448;SDS011;25151;45.566;9.382;2023-06-14T05:07:50;5.10;;;2.30;;
39448;SDS011;25151;45.566;9.382;2023-06-14T05:10:52;4.18;;;1.92;;
39448;SDS011;25151;45.566;9.382;2023-06-14T05:13:56;2.80;;;2.30;;
39448;SDS011;25151;45.566;9.382;2023-06-14T05:16:58;2.40;;;1.80;;
39448;SDS011;25151;45.566;9.382;2023-06-14T05:20:00;2.97;;;2.05;;
39448;SDS011;25151;45.566;9.382;2023-06-14T05:23:02;3.80;;;1.67;;
39448;SDS011;25151;45.566;9.382;2023-06-14T05:26:04;3.95;;;1.95;;
39448;SDS011;25151;45.566;9.382;2023-06-14T05:29:08;3.30;;;2.05;;
39448;SDS011;25151;45.566;9.382;2023-06-14T05:32:10;2.53;;;1.73;;
39448;SDS011;25151;45.566;9.382;2023-06-14T05:35:13;2.53;;;2.10;;
39448;SDS011;25151;45.566;9.382;2023-06-14T05:38:15;4.57;;;2.40;;
39448;SDS011;25151;45.566;9.382;2023-06-14T05:41:18;3.70;;;2.03;;
39448;SDS011;25151;45.566;9.382;2023-06-14T05:44:22;2.28;;;1.98;;
39448;SDS011;25151;45.566;9.382;2023-06-14T05:47:24;3.20;;;2.15;;
39448;SDS011;25151;45.566;9.382;2023-06-14T05:50:26;2.65;;;2.10;;
39448;SDS011;25151;45.566;9.382;2023-06-14T05:53:28;2.28;;;1.80;;
39448;SDS011;25151;45.566;9.382;2023-06-14T05:56:29;4.65;;;1.88;;
39448;SDS011;25151;45.566;9.382;2023-06-14T05:59:33;4.45;;;2.00;;
39448;SDS011;25151;45.566;9.382;2023-06-14T06:02:35;3.33;;;2.30;;
39448;SDS011;25151;45.566;9.382;2023-06-14T06:05:38;3.47;;;1.98;;
39448;SDS011;25151;45.566;9.382;2023-06-14T06:08:41;9.15;;;2.63;;
39448;SDS011;25151;45.566;9.382;2023-06-14T06:11:42;3.75;;;2.42;;
39448;SDS011;25151;45.566;9.382;2023-06-14T06:14:45;3.90;;;2.65;;
39448;SDS011;25151;45.566;9.382;2023-06-14T06:17:47;6.38;;;3.60;;
39448;SDS011;25151;45.566;9.382;2023-06-14T06:20:49;6.60;;;3.38;;
39448;SDS011;25151;45.566;9.382;2023-06-14T06:23:56;3.08;;;2.65;;
39448;SDS011;25151;45.566;9.382;2023-06-14T06:26:59;9.95;;;3.38;;
39448;SDS011;25151;45.566;9.382;2023-06-14T06:30:04;4.10;;;3.22;;
39448;SDS011;25151;45.566;9.382;2023-06-14T06:33:08;6.45;;;4.50;;
39448;SDS011;25151;45.566;9.382;2023-06-14T06:36:10;6.38;;;4.20;;
39448;SDS011;25151;45.566;9.382;2023-06-14T06:39:12;5.72;;;3.65;;
39448;SDS011;25151;45.566;9.382;2023-06-14T06:42:15;3.78;;;3.03;;
39448;SDS011;25151;45.566;9.382;2023-06-14T06:45:18;4.22;;;2.50;;
39448;SDS011;25151;45.566;9.382;2023-06-14T06:48:21;5.10;;;2.63;;
39448;SDS011;25151;45.566;9.382;2023-06-14T06:51:23;3.35;;;2.60;;
39448;SDS011;25151;45.566;9.382;2023-06-14T06:54:25;7.75;;;3.28;;
39448;SDS011;25151;45.566;9.382;2023-06-14T06:57:27;6.07;;;2.45;;
39448;SDS011;25151;45.566;9.382;2023-06-14T07:00:31;3.10;;;2.30;;
39448;SDS011;25151;45.566;9.382;2023-06-14T07:03:33;3.92;;;2.10;;
39448;SDS011;25151;45.566;9.382;2023-06-14T07:06:35;4.85;;;2.78;;
39448;SDS011;25151;45.566;9.382;2023-06-14T07:09:37;3.92;;;2.17;;
39448;SDS011;25151;45.566;9.382;2023-06-14T07:12:40;4.60;;;2.00;;
39448;SDS011;25151;45.566;9.382;2023-06-14T07:15:44;6.53;;;2.67;;
39448;SDS011;25151;45.566;9.382;2023-06-14T07:18:47;3.95;;;2.10;;
39448;SDS011;25151;45.566;9.382;2023-06-14T07:21:49;3.45;;;2.13;;
39448;SDS011;25151;45.566;9.382;2023-06-14T07:24:51;3.88;;;2.30;;
39448;SDS011;25151;45.566;9.382;2023-06-14T07:27:53;3.50;;;2.00;;
39448;SDS011;25151;45.566;9.382;2023-06-14T07:30:56;4.70;;;2.10;;
39448;SDS011;25151;45.566;9.382;2023-06-14T07:33:58;3.42;;;2.53;;
39448;SDS011;25151;45.566;9.382;2023-06-14T07:37:00;3.50;;;2.40;;
39448;SDS011;25151;45.566;9.382;2023-06-14T07:40:03;2.63;;;2.03;;
39448;SDS011;25151;45.566;9.382;2023-06-14T07:43:07;3.25;;;2.10;;
39448;SDS011;25151;45.566;9.382;2023-06-14T07:46:10;3.78;;;2.20;;
39448;SDS011;25151;45.566;9.382;2023-06-14T07:49:12;4.53;;;2.75;;
39448;SDS011;25151;45.566;9.382;2023-06-14T07:52:15;5.10;;;2.65;;
39448;SDS011;25151;45.566;9.382;2023-06-14T07:55:16;9.27;;;3.22;;
39448;SDS011;25151;45.566;9.382;2023-06-14T07:58:19;10.00;;;3.72;;
39448;SDS011;25151;45.566;9.382;2023-06-14T08:01:22;9.02;;;3.90;;
39448;SDS011;25151;45.566;9.382;2023-06-14T08:04:25;8.23;;;3.47;;
39448;SDS011;25151;45.566;9.382;2023-06-14T08:07:27;9.70;;;3.95;;
39448;SDS011;25151;45.566;9.382;2023-06-14T08:10:30;8.35;;;3.70;;
39448;SDS011;25151;45.566;9.382;2023-06-14T08:13:32;14.23;;;4.80;;
39448;SDS011;25151;45.566;9.382;2023-06-14T08:16:36;10.43;;;4.43;;
39448;SDS011;25151;45.566;9.382;2023-06-14T08:19:38;13.60;;;5.15;;
39448;SDS011;25151;45.566;9.382;2023-06-14T08:22:41;8.68;;;4.10;;
39448;SDS011;25151;45.566;9.382;2023-06-14T08:25:44;9.90;;;4.18;;
39448;SDS011;25151;45.566;9.382;2023-06-14T08:28:46;10.68;;;4.72;;
39448;SDS011;25151;45.566;9.382;2023-06-14T08:31:52;10.85;;;4.68;;
39448;SDS011;25151;45.566;9.382;2023-06-14T08:34:54;9.20;;;4.13;;
39448;SDS011;25151;45.566;9.382;2023-06-14T08:37:57;11.32;;;4.55;;
39448;SDS011;25151;45.566;9.382;2023-06-14T08:40:59;13.32;;;4.82;;
39448;SDS011;25151;45.566;9.382;2023-06-14T08:44:06;11.68;;;4.68;;
39448;SDS011;25151;45.566;9.382;2023-06-14T08:47:09;8.60;;;4.15;;
39448;SDS011;25151;45.566;9.382;2023-06-14T08:50:13;12.00;;;4.50;;
39448;SDS011;25151;45.566;9.382;2023-06-14T08:53:16;10.32;;;4.55;;
39448;SDS011;25151;45.566;9.382;2023-06-14T08:56:20;8.95;;;4.00;;
39448;SDS011;25151;45.566;9.382;2023-06-14T08:59:26;9.93;;;4.68;;
39448;SDS011;25151;45.566;9.382;2023-06-14T09:02:33;8.10;;;3.83;;
39448;SDS011;25151;45.566;9.382;2023-06-14T09:05:35;8.48;;;4.40;;
39448;SDS011;25151;45.566;9.382;2023-06-14T09:08:37;7.80;;;3.75;;
39448;SDS011;25151;45.566;9.382;2023-06-14T09:11:43;10.52;;;3.75;;
39448;SDS011;25151;45.566;9.382;2023-06-14T09:14:45;9.82;;;4.10;;
39448;SDS011;25151;45.566;9.382;2023-06-14T09:17:49;7.25;;;4.13;;
39448;SDS011;25151;45.566;9.382;2023-06-14T09:20:51;8.82;;;4.35;;
39448;SDS011;25151;45.566;9.382;2023-06-14T09:23:56;8.70;;;3.67;;
39448;SDS011;25151;45.566;9.382;2023-06-14T09:26:58;8.85;;;4.45;;
39448;SDS011;25151;45.566;9.382;2023-06-14T09:30:02;8.23;;;4.07;;
39448;SDS011;25151;45.566;9.382;2023-06-14T09:33:06;11.80;;;3.88;;
39448;SDS011;25151;45.566;9.382;2023-06-14T09:36:10;7.18;;;3.88;;
39448;SDS011;25151;45.566;9.382;2023-06-14T09:39:16;10.50;;;4.10;;
39448;SDS011;25151;45.566;9.382;2023-06-14T09:42:19;7.70;;;3.92;;
39448;SDS011;25151;45.566;9.382;2023-06-14T09:45:21;6.90;;;3.80;;
39448;SDS011;25151;45.566;9.382;2023-06-14T09:48:26;9.20;;;3.92;;
39448;SDS011;25151;45.566;9.382;2023-06-14T09:51:28;8.82;;;3.90;;
39448;SDS011;25151;45.566;9.382;2023-06-14T09:54:31;7.45;;;3.60;;
39448;SDS011;25151;45.566;9.382;2023-06-14T09:57:38;8.57;;;4.18;;
39448;SDS011;25151;45.566;9.382;2023-06-14T10:00:44;7.15;;;3.63;;
39448;SDS011;25151;45.566;9.382;2023-06-14T10:03:51;6.72;;;3.55;;
39448;SDS011;25151;45.566;9.382;2023-06-14T10:06:57;6.93;;;3.90;;
39448;SDS011;25151;45.566;9.382;2023-06-14T10:10:02;11.60;;;4.15;;
39448;SDS011;25151;45.566;9.382;2023-06-14T10:13:05;8.43;;;3.90;;
39448;SDS011;25151;45.566;9.382;2023-06-14T10:16:09;9.95;;;3.92;;
39448;SDS011;25151;45.566;9.382;2023-06-14T10:19:19;7.57;;;4.15;;
39448;SDS011;25151;45.566;9.382;2023-06-14T10:22:26;5.53;;;3.80;;
39448;SDS011;25151;45.566;9.382;2023-06-14T10:29:07;10.43;;;4.35;;
39448;SDS011;25151;45.566;9.382;2023-06-14T10:32:09;7.47;;;3.55;;
39448;SDS011;25151;45.566;9.382;2023-06-14T10:35:15;7.95;;;3.78;;
39448;SDS011;25151;45.566;9.382;2023-06-14T10:38:17;9.10;;;3.60;;
39448;SDS011;25151;45.566;9.382;2023-06-14T10:41:34;8.73;;;4.00;;
39448;SDS011;25151;45.566;9.382;2023-06-14T10:44:38;7.93;;;3.38;;
39448;SDS011;25151;45.566;9.382;2023-06-14T10:47:44;9.00;;;4.07;;
39448;SDS011;25151;45.566;9.382;2023-06-14T10:51:01;9.20;;;3.92;;
39448;SDS011;25151;45.566;9.382;2023-06-14T10:54:03;6.82;;;3.58;;
39448;SDS011;25151;45.566;9.382;2023-06-14T10:57:12;7.60;;;3.60;;
39448;SDS011;25151;45.566;9.382;2023-06-14T11:00:15;6.90;;;3.70;;
39448;SDS011;25151;45.566;9.382;2023-06-14T11:06:55;6.38;;;3.15;;
39448;SDS011;25151;45.566;9.382;2023-06-14T11:10:14;8.50;;;3.88;;
39448;SDS011;25151;45.566;9.382;2023-06-14T11:13:26;6.28;;;3.55;;
39448;SDS011;25151;45.566;9.382;2023-06-14T11:16:29;5.60;;;3.28;;
39448;SDS011;25151;45.566;9.382;2023-06-14T11:19:33;6.90;;;3.17;;
39448;SDS011;25151;45.566;9.382;2023-06-14T11:22:41;7.55;;;3.55;;
39448;SDS011;25151;45.566;9.382;2023-06-14T11:25:48;7.75;;;3.42;;
39448;SDS011;25151;45.566;9.382;2023-06-14T11:28:54;10.43;;;3.65;;
39448;SDS011;25151;45.566;9.382;2023-06-14T11:31:57;6.40;;;3.75;;
39448;SDS011;25151;45.566;9.382;2023-06-14T11:34:59;10.80;;;3.75;;
39448;SDS011;25151;45.566;9.382;2023-06-14T11:38:03;6.75;;;3.47;;
39448;SDS011;25151;45.566;9.382;2023-06-14T11:41:06;5.65;;;3.47;;
39448;SDS011;25151;45.566;9.382;2023-06-14T11:44:08;6.88;;;3.30;;
39448;SDS011;25151;45.566;9.382;2023-06-14T11:47:11;8.63;;;3.78;;
39448;SDS011;25151;45.566;9.382;2023-06-14T11:50:14;6.72;;;3.30;;
39448;SDS011;25151;45.566;9.382;2023-06-14T11:53:18;7.40;;;3.75;;
39448;SDS011;25151;45.566;9.382;2023-06-14T11:56:20;5.93;;;3.60;;
39448;SDS011;25151;45.566;9.382;2023-06-14T11:59:23;8.70;;;3.72;;
39448;SDS011;25151;45.566;9.382;2023-06-14T12:02:26;7.50;;;3.55;;
39448;SDS011;25151;45.566;9.382;2023-06-14T12:05:29;8.65;;;2.92;;
39448;SDS011;25151;45.566;9.382;2023-06-14T12:08:34;7.07;;;3.30;;
39448;SDS011;25151;45.566;9.382;2023-06-14T12:11:39;8.43;;;2.83;;
39448;SDS011;25151;45.566;9.382;2023-06-14T12:14:41;7.70;;;3.55;;
39448;SDS011;25151;45.566;9.382;2023-06-14T12:17:44;6.35;;;2.95;;
39448;SDS011;25151;45.566;9.382;2023-06-14T12:20:47;8.55;;;3.08;;
39448;SDS011;25151;45.566;9.382;2023-06-14T12:23:52;6.70;;;2.90;;
39448;SDS011;25151;45.566;9.382;2023-06-14T12:26:56;4.93;;;3.15;;
39448;SDS011;25151;45.566;9.382;2023-06-14T12:30:00;6.38;;;3.10;;
39448;SDS011;25151;45.566;9.382;2023-06-14T12:33:04;11.20;;;3.30;;
39448;SDS011;25151;45.566;9.382;2023-06-14T12:36:08;11.15;;;3.28;;
39448;SDS011;25151;45.566;9.382;2023-06-14T12:39:12;7.72;;;3.42;;
39448;SDS011;25151;45.566;9.382;2023-06-14T12:42:15;5.38;;;3.03;;
39448;SDS011;25151;45.566;9.382;2023-06-14T12:45:17;7.47;;;3.75;;
39448;SDS011;25151;45.566;9.382;2023-06-14T12:48:20;5.00;;;2.83;;
39448;SDS011;25151;45.566;9.382;2023-06-14T12:51:22;6.40;;;3.10;;
39448;SDS011;25151;45.566;9.382;2023-06-14T12:54:27;5.00;;;3.00;;
39448;SDS011;25151;45.566;9.382;2023-06-14T12:57:29;5.32;;;3.20;;
39448;SDS011;25151;45.566;9.382;2023-06-14T13:00:32;8.68;;;3.63;;
39448;SDS011;25151;45.566;9.382;2023-06-14T13:03:34;5.22;;;2.85;;
39448;SDS011;25151;45.566;9.382;2023-06-14T13:06:37;5.00;;;2.70;;
39448;SDS011;25151;45.566;9.382;2023-06-14T13:09:40;4.38;;;2.50;;
39448;SDS011;25151;45.566;9.382;2023-06-14T13:12:43;10.60;;;3.13;;
39448;SDS011;25151;45.566;9.382;2023-06-14T13:15:45;5.20;;;3.22;;
39448;SDS011;25151;45.566;9.382;2023-06-14T13:18:49;6.70;;;2.97;;
39448;SDS011;25151;45.566;9.382;2023-06-14T13:21:52;7.22;;;3.08;;
39448;SDS011;25151;45.566;9.382;2023-06-14T13:24:56;6.80;;;3.22;;
39448;SDS011;25151;45.566;9.382;2023-06-14T13:27:57;5.13;;;3.17;;
39448;SDS011;25151;45.566;9.382;2023-06-14T13:31:00;4.60;;;2.80;;
39448;SDS011;25151;45.566;9.382;2023-06-14T13:34:02;6.55;;;3.05;;
39448;SDS011;25151;45.566;9.382;2023-06-14T13:37:05;7.00;;;3.28;;
39448;SDS011;25151;45.566;9.382;2023-06-14T13:40:10;7.45;;;3.28;;
39448;SDS011;25151;45.566;9.382;2023-06-14T13:43:12;6.53;;;3.35;;
39448;SDS011;25151;45.566;9.382;2023-06-14T13:46:15;4.13;;;2.60;;
39448;SDS011;25151;45.566;9.382;2023-06-14T13:49:17;6.03;;;2.90;;
39448;SDS011;25151;45.566;9.382;2023-06-14T13:52:19;6.25;;;3.30;;
39448;SDS011;25151;45.566;9.382;2023-06-14T13:55:22;5.28;;;3.10;;
39448;SDS011;25151;45.566;9.382;2023-06-14T13:58:25;4.35;;;2.90;;
39448;SDS011;25151;45.566;9.382;2023-06-14T14:01:27;5.57;;;3.13;;
39448;SDS011;25151;45.566;9.382;2023-06-14T14:04:29;7.95;;;3.35;;
39448;SDS011;25151;45.566;9.382;2023-06-14T14:07:31;7.97;;;2.92;;
39448;SDS011;25151;45.566;9.382;2023-06-14T14:10:36;7.65;;;3.35;;
39448;SDS011;25151;45.566;9.382;2023-06-14T14:13:38;5.90;;;3.15;;
39448;SDS011;25151;45.566;9.382;2023-06-14T14:16:41;8.73;;;3.42;;
39448;SDS011;25151;45.566;9.382;2023-06-14T14:19:43;5.53;;;3.05;;
39448;SDS011;25151;45.566;9.382;2023-06-14T14:22:45;8.13;;;2.80;;
39448;SDS011;25151;45.566;9.382;2023-06-14T14:25:49;8.43;;;3.10;;
39448;SDS011;25151;45.566;9.382;2023-06-14T14:28:50;4.95;;;2.83;;
39448;SDS011;25151;45.566;9.382;2023-06-14T14:31:53;8.95;;;3.05;;
39448;SDS011;25151;45.566;9.382;2023-06-14T14:34:55;5.55;;;2.70;;
39448;SDS011;25151;45.566;9.382;2023-06-14T14:37:57;7.55;;;2.90;;
39448;SDS011;25151;45.566;9.382;2023-06-14T14:41:01;6.63;;;3.25;;
39448;SDS011;25151;45.566;9.382;2023-06-14T14:44:03;6.20;;;2.97;;
39448;SDS011;25151;45.566;9.382;2023-06-14T14:47:05;5.22;;;2.70;;
39448;SDS011;25151;45.566;9.382;2023-06-14T14:50:07;3.92;;;2.72;;
39448;SDS011;25151;45.566;9.382;2023-06-14T14:53:10;5.88;;;3.22;;
39448;SDS011;25151;45.566;9.382;2023-06-14T14:56:13;5.28;;;2.60;;
39448;SDS011;25151;45.566;9.382;2023-06-14T14:59:15;5.70;;;2.78;;
39448;SDS011;25151;45.566;9.382;2023-06-14T15:02:18;6.03;;;3.00;;
39448;SDS011;25151;45.566;9.382;2023-06-14T15:05:20;6.18;;;2.83;;
39448;SDS011;25151;45.566;9.382;2023-06-14T15:08:23;4.57;;;3.00;;
39448;SDS011;25151;45.566;9.382;2023-06-14T15:11:27;3.92;;;2.25;;
39448;SDS011;25151;45.566;9.382;2023-06-14T15:14:29;5.07;;;2.45;;
39448;SDS011;25151;45.566;9.382;2023-06-14T15:17:31;6.65;;;2.75;;
39448;SDS011;25151;45.566;9.382;2023-06-14T15:20:34;4.95;;;2.63;;
39448;SDS011;25151;45.566;9.382;2023-06-14T15:23:36;5.28;;;3.20;;
39448;SDS011;25151;45.566;9.382;2023-06-14T15:26:40;6.97;;;2.67;;
39448;SDS011;25151;45.566;9.382;2023-06-14T15:29:42;3.83;;;2.58;;
39448;SDS011;25151;45.566;9.382;2023-06-14T15:32:44;6.82;;;2.50;;
39448;SDS011;25151;45.566;9.382;2023-06-14T15:35:46;5.00;;;2.85;;
39448;SDS011;25151;45.566;9.382;2023-06-14T15:38:48;3.70;;;2.47;;
39448;SDS011;25151;45.566;9.382;2023-06-14T15:41:52;4.78;;;3.10;;
39448;SDS011;25151;45.566;9.382;2023-06-14T15:44:55;4.47;;;2.58;;
39448;SDS011;25151;45.566;9.382;2023-06-14T15:47:58;4.65;;;2.60;;
39448;SDS011;25151;45.566;9.382;2023-06-14T15:51:00;4.13;;;2.70;;
39448;SDS011;25151;45.566;9.382;2023-06-14T15:54:03;11.45;;;3.78;;
39448;SDS011;25151;45.566;9.382;2023-06-14T15:57:07;3.55;;;2.83;;
39448;SDS011;25151;45.566;9.382;2023-06-14T16:00:10;4.05;;;2.63;;
39448;SDS011;25151;45.566;9.382;2023-06-14T16:03:13;4.30;;;3.17;;
39448;SDS011;25151;45.566;9.382;2023-06-14T16:06:15;4.78;;;2.50;;
39448;SDS011;25151;45.566;9.382;2023-06-14T16:09:18;4.38;;;2.85;;
39448;SDS011;25151;45.566;9.382;2023-06-14T16:12:22;3.38;;;2.45;;
39448;SDS011;25151;45.566;9.382;2023-06-14T16:15:26;3.60;;;2.90;;
39448;SDS011;25151;45.566;9.382;2023-06-14T16:18:32;5.43;;;3.30;;
39448;SDS011;25151;45.566;9.382;2023-06-14T16:21:36;4.15;;;2.63;;
39448;SDS011;25151;45.566;9.382;2023-06-14T16:24:43;4.57;;;2.58;;
39448;SDS011;25151;45.566;9.382;2023-06-14T16:27:47;3.83;;;2.72;;
39448;SDS011;25151;45.566;9.382;2023-06-14T16:30:50;6.70;;;2.67;;
39448;SDS011;25151;45.566;9.382;2023-06-14T16:33:52;4.45;;;2.42;;
39448;SDS011;25151;45.566;9.382;2023-06-14T16:36:55;4.55;;;2.63;;
39448;SDS011;25151;45.566;9.382;2023-06-14T16:39:57;3.30;;;2.33;;
39448;SDS011;25151;45.566;9.382;2023-06-14T16:43:02;4.25;;;3.17;;
39448;SDS011;25151;45.566;9.382;2023-06-14T16:46:06;3.22;;;2.50;;
39448;SDS011;25151;45.566;9.382;2023-06-14T16:49:09;3.78;;;2.55;;
39448;SDS011;25151;45.566;9.382;2023-06-14T16:52:11;2.58;;;2.13;;
39448;SDS011;25151;45.566;9.382;2023-06-14T16:55:14;3.72;;;2.40;;
39448;SDS011;25151;45.566;9.382;2023-06-14T16:58:18;4.82;;;2.80;;
39448;SDS011;25151;45.566;9.382;2023-06-14T17:01:20;4.60;;;2.85;;
39448;SDS011;25151;45.566;9.382;2023-06-14T17:04:23;3.20;;;2.53;;
39448;SDS011;25151;45.566;9.382;2023-06-14T17:07:26;4.85;;;2.67;;
39448;SDS011;25151;45.566;9.382;2023-06-14T17:10:29;2.95;;;2.38;;
39448;SDS011;25151;45.566;9.382;2023-06-14T17:13:33;4.28;;;2.38;;
39448;SDS011;25151;45.566;9.382;2023-06-14T17:16:36;4.00;;;2.55;;
39448;SDS011;25151;45.566;9.382;2023-06-14T17:19:38;7.22;;;3.28;;
39448;SDS011;25151;45.566;9.382;2023-06-14T17:22:41;5.93;;;3.15;;
39448;SDS011;25151;45.566;9.382;2023-06-14T17:25:43;7.15;;;2.60;;
39448;SDS011;25151;45.566;9.382;2023-06-14T17:28:49;7.38;;;3.00;;
39448;SDS011;25151;45.566;9.382;2023-06-14T17:31:51;4.60;;;2.70;;
39448;SDS011;25151;45.566;9.382;2023-06-14T17:34:53;5.55;;;3.05;;
39448;SDS011;25151;45.566;9.382;2023-06-14T17:37:56;4.43;;;2.75;;
39448;SDS011;25151;45.566;9.382;2023-06-14T17:40:57;5.93;;;3.33;;
39448;SDS011;25151;45.566;9.382;2023-06-14T17:44:02;4.32;;;2.60;;
39448;SDS011;25151;45.566;9.382;2023-06-14T17:47:05;3.63;;;3.08;;
39448;SDS011;25151;45.566;9.382;2023-06-14T17:50:07;4.68;;;2.63;;
39448;SDS011;25151;45.566;9.382;2023-06-14T17:53:10;4.97;;;3.05;;
39448;SDS011;25151;45.566;9.382;2023-06-14T17:56:14;3.85;;;2.78;;
39448;SDS011;25151;45.566;9.382;2023-06-14T17:59:18;7.60;;;3.00;;
39448;SDS011;25151;45.566;9.382;2023-06-14T18:02:20;5.75;;;3.00;;
39448;SDS011;25151;45.566;9.382;2023-06-14T18:05:21;8.00;;;2.50;;
39448;SDS011;25151;45.566;9.382;2023-06-14T18:08:24;4.07;;;3.03;;
39448;SDS011;25151;45.566;9.382;2023-06-14T18:11:26;6.18;;;2.58;;
39448;SDS011;25151;45.566;9.382;2023-06-14T18:14:31;6.43;;;2.60;;
39448;SDS011;25151;45.566;9.382;2023-06-14T18:17:36;7.63;;;2.30;;
39448;SDS011;25151;45.566;9.382;2023-06-14T18:20:43;4.40;;;2.75;;
39448;SDS011;25151;45.566;9.382;2023-06-14T18:23:45;3.83;;;2.17;;
39448;SDS011;25151;45.566;9.382;2023-06-14T18:26:52;6.10;;;2.63;;
39448;SDS011;25151;45.566;9.382;2023-06-14T18:29:55;6.25;;;3.03;;
39448;SDS011;25151;45.566;9.382;2023-06-14T18:32:57;4.57;;;2.38;;